Time;durP1;ratioP1;P1;durP2;ratioP2;P2;SDS_P1;SDS_P2;PMS_P1;PMS_P2;Temp;Humidity;BMP_temperature;BMP_pressure;BME280_temperature;BME280_humidity;BME280_pressure;Samples;Min_cycle;Max_cycle;Signal;HPM_P1;HPM_P2
2022/03/21 00:01:55;;;;;;;16.83;11.93;;;2.20;99.90;;;;;;5124884;28;20898;-81
2022/03/21 00:04:22;;;;;;;20.47;11.77;;;2.20;99.90;;;;;;5122211;28;20460;-81
2022/03/21 00:06:47;;;;;;;18.50;11.87;;;2.10;99.90;;;;;;5122861;28;20191;-81
2022/03/21 00:09:13;;;;;;;20.63;12.00;;;;;;;;;;5125004;28;20203;-81
2022/03/21 00:11:39;;;;;;;20.23;12.83;;;2.10;99.90;;;;;;5123006;28;20171;-81
2022/03/21 00:14:05;;;;;;;21.77;12.07;;;2.10;99.90;;;;;;5123493;28;20172;-81
2022/03/21 00:16:31;;;;;;;21.33;11.60;;;2.10;99.90;;;;;;5124961;28;20601;-81
2022/03/21 00:18:57;;;;;;;17.37;11.83;;;2.10;99.90;;;;;;5124397;28;20470;-81
2022/03/21 00:21:23;;;;;;;19.27;11.30;;;;;;;;;;5124857;28;20175;-81
2022/03/21 00:23:49;;;;;;;19.70;11.60;;;2.00;99.90;;;;;;5124580;28;20183;-81
2022/03/21 00:26:17;;;;;;;18.17;12.23;;;1.90;99.90;;;;;;5125850;28;20442;-81
2022/03/21 00:28:43;;;;;;;19.63;12.53;;;;;;;;;;5127307;28;20179;-81
2022/03/21 00:31:09;;;;;;;20.40;11.47;;;1.90;99.90;;;;;;5125501;28;20455;-81
2022/03/21 00:33:35;;;;;;;17.60;11.53;;;;;;;;;;5125090;28;20175;-81
2022/03/21 00:36:01;;;;;;;20.47;11.73;;;;;;;;;;5127313;28;20191;-80
2022/03/21 00:38:28;;;;;;;19.43;12.80;;;1.80;99.90;;;;;;5129856;28;20409;-81
2022/03/21 00:40:54;;;;;;;20.67;11.63;;;1.70;99.90;;;;;;5128524;28;20484;-81
2022/03/21 00:43:22;;;;;;;19.97;11.63;;;1.70;99.90;;;;;;5129175;28;20179;-81
2022/03/21 00:45:50;;;;;;;21.13;12.33;;;1.70;99.90;;;;;;5129781;28;20211;-81
2022/03/21 00:48:16;;;;;;;20.43;12.80;;;1.70;99.90;;;;;;5126286;28;20402;-81
2022/03/21 00:50:42;;;;;;;22.83;12.83;;;1.70;99.90;;;;;;5131584;28;20424;-80
2022/03/21 00:53:08;;;;;;;21.03;12.00;;;2.90;99.90;;;;;;5136849;28;20423;-80
2022/03/21 00:55:34;;;;;;;22.90;12.70;;;1.60;99.90;;;;;;5136374;28;20449;-81
2022/03/21 00:57:59;;;;;;;20.83;12.43;;;3.10;99.90;;;;;;5125138;28;20215;-80
2022/03/21 01:00:28;;;;;;;22.03;12.50;;;1.50;99.90;;;;;;5122278;28;20229;-81
2022/03/21 01:02:56;;;;;;;17.70;11.23;;;1.50;99.90;;;;;;5122108;28;20286;-81
2022/03/21 01:05:22;;;;;;;19.07;11.47;;;1.50;99.90;;;;;;5121990;28;20207;-81
2022/03/21 01:07:49;;;;;;;21.50;12.00;;;1.70;99.90;;;;;;5121953;28;20186;-81
2022/03/21 01:10:16;;;;;;;16.73;11.47;;;1.50;99.90;;;;;;5123223;28;20462;-81
2022/03/21 01:12:43;;;;;;;19.57;12.23;;;1.50;99.90;;;;;;5122192;28;20434;-81
2022/03/21 01:15:11;;;;;;;19.87;12.43;;;1.30;99.90;;;;;;5123121;28;20262;-81
2022/03/21 01:17:36;;;;;;;19.00;12.73;;;1.30;99.90;;;;;;5122361;28;20424;-81
2022/03/21 01:20:04;;;;;;;19.30;12.47;;;1.30;99.90;;;;;;5122463;28;20511;-81
2022/03/21 01:22:30;;;;;;;22.07;12.27;;;1.20;99.90;;;;;;5122429;28;20171;-81
2022/03/21 01:24:55;;;;;;;19.27;12.60;;;1.30;99.90;;;;;;5121781;28;20544;-82
2022/03/21 01:27:21;;;;;;;20.77;12.73;;;1.30;99.90;;;;;;5124011;28;20183;-82
2022/03/21 01:29:47;;;;;;;17.33;11.53;;;1.70;99.90;;;;;;5123216;28;20178;-81
2022/03/21 01:32:13;;;;;;;20.87;13.47;;;1.30;99.90;;;;;;5122624;28;20176;-81
2022/03/21 01:34:39;;;;;;;21.60;12.90;;;1.30;99.90;;;;;;5124051;28;20467;-82
2022/03/21 01:37:04;;;;;;;21.20;12.07;;;1.30;99.90;;;;;;5124404;28;20228;-81
2022/03/21 01:39:30;;;;;;;22.87;12.97;;;1.20;99.90;;;;;;5123165;28;20190;-81
2022/03/21 01:41:56;;;;;;;18.13;12.00;;;2.10;99.90;;;;;;5128660;28;20526;-81
2022/03/21 01:44:22;;;;;;;26.63;12.53;;;1.00;99.90;;;;;;5128165;27;20478;-81
2022/03/21 01:46:48;;;;;;;21.10;12.30;;;1.00;99.90;;;;;;5127910;28;20195;-81
2022/03/21 01:49:14;;;;;;;21.67;12.53;;;0.90;99.90;;;;;;5128375;28;20577;-82
2022/03/21 01:51:41;;;;;;;20.57;12.83;;;1.00;99.90;;;;;;5127469;28;20269;-81
2022/03/21 01:56:52;;;;;;;21.03;12.00;;;0.90;99.90;;;;;;5127349;28;20774;-81
2022/03/21 01:59:21;;;;;;;20.97;13.33;;;0.80;99.90;;;;;;5127336;28;20401;-81
2022/03/21 02:01:49;;;;;;;20.73;12.53;;;0.70;99.90;;;;;;5127090;28;20405;-81
2022/03/21 02:04:15;;;;;;;19.27;13.23;;;0.80;99.90;;;;;;5125950;28;20192;-81
2022/03/21 02:06:45;;;;;;;22.50;11.53;;;0.80;99.90;;;;;;5127801;28;20417;-81
2022/03/21 02:09:11;;;;;;;20.40;12.00;;;0.70;99.90;;;;;;5126064;28;20652;-81
2022/03/21 02:11:37;;;;;;;22.50;12.63;;;0.70;99.90;;;;;;5125624;28;20420;-82
2022/03/21 02:14:05;;;;;;;23.33;12.97;;;0.70;99.90;;;;;;5126500;28;20402;-81
2022/03/21 02:16:33;;;;;;;21.10;12.53;;;1.70;99.90;;;;;;5127404;28;20432;-82
2022/03/21 02:19:01;;;;;;;21.27;12.73;;;0.60;99.90;;;;;;5125766;28;20416;-82
2022/03/21 02:21:37;;;;;;;17.50;11.90;;;0.60;99.90;;;;;;5126804;28;20398;-82
2022/03/21 02:24:09;;;;;;;18.23;12.07;;;0.50;99.90;;;;;;5125900;28;20426;-82
2022/03/21 02:26:36;;;;;;;20.50;11.57;;;0.50;99.90;;;;;;5125708;28;20997;-82
2022/03/21 02:29:03;;;;;;;17.07;11.43;;;0.60;99.90;;;;;;5125937;28;20416;-82
2022/03/21 02:31:31;;;;;;;21.43;12.00;;;0.50;99.90;;;;;;5125568;28;20409;-82
2022/03/21 02:33:57;;;;;;;17.50;12.07;;;0.50;99.90;;;;;;5125421;28;20410;-82
2022/03/21 02:36:26;;;;;;;16.60;10.80;;;0.50;99.90;;;;;;5127519;28;20991;-81
2022/03/21 02:38:53;;;;;;;21.90;12.13;;;0.50;99.90;;;;;;5126740;28;20408;-82
2022/03/21 02:41:19;;;;;;;19.20;11.83;;;0.40;99.90;;;;;;5126866;28;20469;-82
2022/03/21 02:43:51;;;;;;;19.97;12.43;;;0.40;99.90;;;;;;5125493;28;20425;-81
2022/03/21 02:46:17;;;;;;;18.40;12.10;;;0.40;99.90;;;;;;5127554;28;20211;-82
2022/03/21 02:48:46;;;;;;;17.57;11.73;;;0.40;99.90;;;;;;5126595;28;20425;-82
2022/03/21 02:51:13;;;;;;;20.07;11.87;;;0.40;99.90;;;;;;5125451;28;20171;-82
2022/03/21 02:53:40;;;;;;;23.07;12.77;;;0.40;99.90;;;;;;5125910;28;20485;-81
2022/03/21 02:56:06;;;;;;;20.23;12.50;;;1.00;99.90;;;;;;5127757;28;20979;-82
2022/03/21 02:58:31;;;;;;;20.43;12.40;;;0.40;99.90;;;;;;5126037;28;20412;-82
2022/03/21 03:01:08;;;;;;;18.03;11.50;;;1.00;99.90;;;;;;5132488;28;20413;-81
2022/03/21 03:03:34;;;;;;;23.10;11.93;;;0.30;99.90;;;;;;5128174;28;20205;-81
2022/03/21 03:05:59;;;;;;;21.87;12.50;;;0.30;99.90;;;;;;5125636;28;20457;-82
2022/03/21 03:08:25;;;;;;;21.17;12.47;;;0.30;99.90;;;;;;5127058;28;20203;-82
2022/03/21 03:10:51;;;;;;;21.07;12.30;;;0.30;99.90;;;;;;5125198;28;20176;-81
2022/03/21 03:13:16;;;;;;;18.00;11.03;;;0.70;99.90;;;;;;5123948;28;20180;-81
2022/03/21 03:15:42;;;;;;;19.10;11.10;;;1.40;99.90;;;;;;5123882;28;20231;-82
2022/03/21 03:18:07;;;;;;;19.83;12.27;;;1.20;99.90;;;;;;5124022;28;20176;-82
2022/03/21 03:20:34;;;;;;;18.17;11.83;;;1.70;99.90;;;;;;5125640;28;20172;-82
2022/03/21 03:23:01;;;;;;;19.13;12.13;;;0.60;99.90;;;;;;5124845;28;20176;-81
2022/03/21 03:25:27;;;;;;;22.73;12.07;;;1.10;99.90;;;;;;5124221;28;20219;-81
2022/03/21 03:27:52;;;;;;;24.40;12.33;;;0.00;99.90;;;;;;5125633;28;20405;-81
2022/03/21 03:30:18;;;;;;;22.80;11.80;;;-0.10;99.90;;;;;;5124133;28;20175;-81
2022/03/21 03:32:45;;;;;;;19.73;12.43;;;-0.20;99.90;;;;;;5125372;28;20201;-81
2022/03/21 03:35:11;;;;;;;20.50;11.87;;;-0.10;99.90;;;;;;5123777;28;20176;-81
2022/03/21 03:37:37;;;;;;;19.77;11.67;;;0.50;99.90;;;;;;5125713;27;20409;-81
2022/03/21 03:40:03;;;;;;;21.33;11.77;;;-0.10;99.90;;;;;;5125609;28;20175;-81
2022/03/21 03:42:29;;;;;;;17.23;10.57;;;-0.10;99.90;;;;;;5123450;28;20176;-81
2022/03/21 03:44:54;;;;;;;17.53;11.10;;;-0.10;99.90;;;;;;5124561;28;20445;-81
2022/03/21 03:47:20;;;;;;;17.33;10.80;;;1.30;99.90;;;;;;5125411;28;20549;-81
2022/03/21 03:49:46;;;;;;;20.50;10.40;;;0.00;99.90;;;;;;5125979;28;20227;-82
2022/03/21 03:52:12;;;;;;;15.07;9.70;;;-0.10;99.90;;;;;;5125764;28;20178;-81
2022/03/21 03:54:37;;;;;;;17.73;10.27;;;-0.30;99.90;;;;;;5126217;28;20203;-82
2022/03/21 03:57:03;;;;;;;17.20;10.10;;;-0.30;99.90;;;;;;5125778;28;20225;-82
2022/03/21 03:59:29;;;;;;;15.40;9.00;;;-0.30;99.90;;;;;;5125614;28;20179;-82
2022/03/21 04:01:54;;;;;;;18.03;11.13;;;-0.30;99.90;;;;;;5127141;27;20196;-82
2022/03/21 04:04:20;;;;;;;17.27;10.57;;;-0.40;99.90;;;;;;5126139;28;20191;-82
2022/03/21 04:06:46;;;;;;;15.90;9.47;;;-0.40;99.90;;;;;;5127803;28;20191;-82
2022/03/21 04:09:11;;;;;;;18.33;10.30;;;-0.30;99.90;;;;;;5128070;28;20653;-82
2022/03/21 04:11:37;;;;;;;16.87;10.10;;;0.80;99.90;;;;;;5126469;28;20176;-81
2022/03/21 04:14:02;;;;;;;17.77;10.43;;;-0.40;99.90;;;;;;5126017;28;20575;-82
2022/03/21 04:16:29;;;;;;;14.87;8.60;;;-0.40;99.90;;;;;;5128168;28;20192;-82
2022/03/21 04:18:54;;;;;;;18.47;10.70;;;-0.30;99.90;;;;;;5126212;28;20180;-81
2022/03/21 04:21:20;;;;;;;14.63;9.73;;;-0.50;99.90;;;;;;5130711;28;20417;-82
2022/03/21 04:23:46;;;;;;;17.67;9.50;;;-0.30;99.90;;;;;;5128862;28;20179;-83
2022/03/21 04:26:12;;;;;;;16.80;9.33;;;-0.40;99.90;;;;;;5126970;28;20214;-84
2022/03/21 04:28:38;;;;;;;14.90;9.33;;;0.20;99.90;;;;;;5126435;28;20177;-84
2022/03/21 04:31:03;;;;;;;18.50;10.13;;;0.50;99.90;;;;;;5132595;28;20178;-83
2022/03/21 04:33:30;;;;;;;16.13;9.17;;;-0.40;99.90;;;;;;5136562;28;20417;-83
2022/03/21 04:35:55;;;;;;;14.70;9.30;;;-0.40;99.90;;;;;;5136750;28;20195;-83
2022/03/21 04:38:21;;;;;;;16.07;9.93;;;-0.40;99.90;;;;;;5125878;28;20846;-84
2022/03/21 04:40:49;;;;;;;17.10;9.93;;;-0.40;99.90;;;;;;5124214;28;20179;-84
2022/03/21 04:43:16;;;;;;;15.80;9.87;;;-0.40;99.90;;;;;;5123935;28;20590;-84
2022/03/21 04:45:43;;;;;;;16.80;11.07;;;-0.50;99.90;;;;;;5124493;28;20465;-84
2022/03/21 04:48:10;;;;;;;16.63;10.53;;;1.40;99.90;;;;;;5124744;28;20410;-84
2022/03/21 04:50:36;;;;;;;16.90;10.23;;;-0.60;99.90;;;;;;5125197;28;20402;-84
2022/03/21 04:53:02;;;;;;;17.23;10.03;;;-0.60;99.90;;;;;;5124352;28;20422;-81
2022/03/21 04:55:28;;;;;;;16.47;10.17;;;0.90;99.90;;;;;;5123602;28;20437;-81
2022/03/21 04:57:54;;;;;;;15.83;9.00;;;0.70;99.90;;;;;;5123788;28;21014;-82
2022/03/21 05:00:20;;;;;;;14.93;9.53;;;-0.70;99.90;;;;;;5125907;28;20581;-82
2022/03/21 05:02:46;;;;;;;19.90;10.67;;;-0.70;99.90;;;;;;5123537;28;20445;-82
2022/03/21 05:05:12;;;;;;;18.00;11.47;;;-0.50;99.90;;;;;;5123192;28;20453;-83
2022/03/21 05:07:40;;;;;;;18.43;10.10;;;1.80;99.90;;;;;;5123288;28;20180;-82
2022/03/21 05:10:06;;;;;;;16.10;8.43;;;-0.40;99.90;;;;;;5123766;28;20781;-82
2022/03/21 05:12:32;;;;;;;19.70;10.63;;;-0.50;99.90;;;;;;5124068;28;20417;-80
2022/03/21 05:14:57;;;;;;;21.27;9.50;;;-0.50;99.90;;;;;;5128504;28;20428;-81
2022/03/21 05:17:23;;;;;;;15.93;9.23;;;-0.40;99.90;;;;;;5128272;28;20200;-81
2022/03/21 05:19:49;;;;;;;15.70;9.57;;;;;;;;;;5129823;28;20262;-81
2022/03/21 05:22:14;;;;;;;18.20;10.27;;;-0.40;99.90;;;;;;5127662;28;20179;-82
2022/03/21 05:35:55;;;;;;;13.73;8.83;;;-0.40;99.90;;;;;;5129904;28;20432;-82
2022/03/21 05:38:25;;;;;;;14.90;9.33;;;-0.50;99.90;;;;;;5130421;28;20398;-81
2022/03/21 05:40:52;;;;;;;17.13;10.00;;;-0.50;99.90;;;;;;5128705;28;20405;-82
2022/03/21 05:43:18;;;;;;;13.40;9.17;;;-0.30;99.90;;;;;;5129555;28;20413;-82
2022/03/21 05:45:44;;;;;;;12.83;8.30;;;-0.10;99.90;;;;;;5127890;28;21016;-82
2022/03/21 05:50:55;;;;;;;16.93;9.50;;;-0.30;99.90;;;;;;5129813;28;20419;-82
2022/03/21 05:53:21;;;;;;;14.83;9.63;;;;;;;;;;5129617;28;20405;-82
2022/03/21 05:55:47;;;;;;;16.20;9.40;;;-0.20;99.90;;;;;;5127450;28;20234;-81
2022/03/21 05:58:13;;;;;;;16.87;9.17;;;;;;;;;;5127609;28;20579;-81
2022/03/21 06:00:39;;;;;;;15.80;9.73;;;;;;;;;;5128575;28;20184;-82
2022/03/21 06:03:08;;;;;;;15.97;8.67;;;;;;;;;;5126377;28;20429;-81
2022/03/21 06:05:34;;;;;;;18.40;10.77;;;0.00;99.90;;;;;;5127532;28;20560;-81
2022/03/21 06:08:00;;;;;;;14.83;10.17;;;;;;;;;;5125825;28;20409;-81
2022/03/21 06:10:26;;;;;;;15.33;10.30;;;0.20;99.90;;;;;;5126097;28;20413;-81
2022/03/21 06:12:53;;;;;;;17.77;9.93;;;0.20;99.90;;;;;;5124782;28;20405;-81
2022/03/21 06:15:19;;;;;;;15.80;9.73;;;0.30;99.90;;;;;;5125851;28;20911;-81
2022/03/21 06:17:45;;;;;;;16.97;9.93;;;0.30;99.90;;;;;;5127363;28;20411;-81
2022/03/21 06:20:21;;;;;;;16.37;10.00;;;1.10;99.90;;;;;;5129462;27;20168;-81
2022/03/21 06:22:46;;;;;;;17.87;9.97;;;0.50;99.90;;;;;;5127893;28;20171;-81
2022/03/21 06:25:13;;;;;;;13.70;8.90;;;;;;;;;;5125781;28;20796;-81
2022/03/21 06:27:39;;;;;;;20.00;10.40;;;0.60;99.90;;;;;;5127733;28;20204;-82
2022/03/21 06:30:07;;;;;;;20.40;9.03;;;0.70;99.90;;;;;;5130469;27;20408;-82
2022/03/21 06:32:35;;;;;;;13.67;8.63;;;0.80;99.90;;;;;;5138036;28;20484;-79
2022/03/21 06:35:03;;;;;;;14.33;9.07;;;0.80;99.90;;;;;;5137229;28;20481;-81
2022/03/21 06:37:32;;;;;;;13.17;8.37;;;0.90;99.90;;;;;;5137205;28;20386;-81
2022/03/21 06:39:58;;;;;;;13.90;9.23;;;1.00;99.90;;;;;;5125089;28;20877;-81
2022/03/21 06:42:23;;;;;;;12.63;8.07;;;1.10;99.90;;;;;;5124154;28;20414;-80
2022/03/21 06:44:50;;;;;;;17.07;9.40;;;1.10;99.90;;;;;;5126072;28;20564;-81
2022/03/21 06:47:17;;;;;;;14.70;9.20;;;1.20;99.90;;;;;;5126410;28;20192;-81
2022/03/21 06:49:43;;;;;;;16.90;9.33;;;1.20;99.90;;;;;;5127317;28;20415;-83
2022/03/21 06:52:09;;;;;;;14.93;9.90;;;1.10;99.90;;;;;;5127385;28;20412;-81
2022/03/21 06:54:36;;;;;;;14.87;9.17;;;1.70;99.90;;;;;;5123879;28;20410;-81
2022/03/21 06:57:02;;;;;;;13.53;8.87;;;1.70;99.90;;;;;;5127037;28;20191;-80
2022/03/21 06:59:29;;;;;;;15.63;9.93;;;1.40;99.90;;;;;;5125756;28;20969;-79
2022/03/21 07:01:56;;;;;;;16.07;9.60;;;1.40;99.90;;;;;;5126013;28;20425;-81
2022/03/21 07:04:23;;;;;;;16.03;9.90;;;1.50;99.90;;;;;;5126234;28;20390;-80
2022/03/21 07:06:49;;;;;;;16.00;9.57;;;1.80;99.90;;;;;;5125124;28;20484;-80
2022/03/21 07:09:14;;;;;;;14.73;10.13;;;1.80;99.90;;;;;;5123452;28;20441;-81
2022/03/21 07:11:40;;;;;;;13.43;9.07;;;2.00;99.90;;;;;;5125772;28;20197;-80
2022/03/21 07:14:05;;;;;;;15.37;9.13;;;2.20;99.90;;;;;;5127890;28;20164;-79
2022/03/21 07:16:31;;;;;;;15.53;9.43;;;2.30;99.90;;;;;;5126360;28;20202;-80
2022/03/21 07:18:57;;;;;;;13.40;9.90;;;2.40;99.90;;;;;;5126222;28;20172;-80
2022/03/21 07:21:22;;;;;;;14.50;9.47;;;2.70;99.90;;;;;;5126646;28;20164;-81
2022/03/21 07:23:48;;;;;;;21.40;10.67;;;2.90;99.90;;;;;;5126274;28;20183;-81
2022/03/21 07:26:14;;;;;;;17.57;10.00;;;3.10;99.90;;;;;;5126886;28;20203;-81
2022/03/21 07:28:40;;;;;;;14.30;9.70;;;3.30;99.90;;;;;;5125149;28;20175;-82
2022/03/21 07:31:13;;;;;;;16.33;10.60;;;3.60;99.90;;;;;;5124624;28;20254;-82
2022/03/21 07:33:40;;;;;;;16.97;9.03;;;3.90;99.90;;;;;;5124791;28;20411;-82
2022/03/21 07:36:06;;;;;;;12.57;7.87;;;4.30;99.90;;;;;;5126750;28;20196;-83
2022/03/21 07:38:32;;;;;;;14.90;9.00;;;4.70;99.90;;;;;;5126304;28;20259;-83
2022/03/21 07:40:59;;;;;;;15.17;9.00;;;5.00;99.90;;;;;;5125061;28;20228;-82
2022/03/21 07:43:24;;;;;;;11.60;7.87;;;5.40;99.90;;;;;;5126724;28;20173;-81
2022/03/21 07:48:34;;;;;;;12.70;8.80;;;6.10;99.90;;;;;;5126456;28;20180;-82
2022/03/21 07:51:00;;;;;;;12.03;8.30;;;6.50;99.90;;;;;;5122642;28;20264;-81
2022/03/21 07:53:26;;;;;;;10.80;7.87;;;6.80;99.90;;;;;;5122174;28;20168;-82
2022/03/21 07:55:52;;;;;;;13.40;8.53;;;7.20;99.90;;;;;;5121656;28;20194;-81
2022/03/21 07:58:17;;;;;;;14.17;8.93;;;7.60;99.90;;;;;;5124178;28;20202;-82
2022/03/21 08:00:44;;;;;;;11.03;7.83;;;7.70;99.90;;;;;;5123447;28;20523;-82
2022/03/21 08:03:15;;;;;;;12.90;8.30;;;7.80;99.90;;;;;;5122111;28;20221;-81
2022/03/21 08:05:41;;;;;;;11.33;7.57;;;8.10;99.90;;;;;;5123708;28;20204;-82
2022/03/21 08:08:08;;;;;;;14.63;8.53;;;8.10;99.90;;;;;;5123242;28;20203;-81
2022/03/21 08:10:34;;;;;;;11.30;8.10;;;8.20;99.80;;;;;;5124209;28;20179;-81
2022/03/21 08:13:00;;;;;;;12.53;8.57;;;8.40;98.80;;;;;;5126259;28;20175;-81
2022/03/21 08:15:26;;;;;;;14.63;7.57;;;8.80;98.20;;;;;;5127210;28;20199;-81
2022/03/21 08:17:55;;;;;;;12.63;8.53;;;9.10;98.30;;;;;;5121577;28;20272;-81
2022/03/21 08:20:22;;;;;;;11.80;8.37;;;9.00;95.60;;;;;;5121215;28;20175;-81
2022/03/21 08:22:49;;;;;;;17.90;9.00;;;9.10;95.30;;;;;;5122328;28;20180;-81
2022/03/21 08:25:20;;;;;;;10.90;7.87;;;9.10;94.60;;;;;;5123390;28;20199;-81
2022/03/21 08:27:47;;;;;;;14.40;7.60;;;9.10;94.30;;;;;;5124414;28;20246;-81
2022/03/21 08:30:15;;;;;;;12.93;7.90;;;9.10;94.00;;;;;;5123756;28;20195;-81
2022/03/21 08:32:45;;;;;;;11.57;7.83;;;9.40;95.90;;;;;;5125524;28;20214;-81
2022/03/21 08:35:11;;;;;;;13.87;8.50;;;;;;;;;;5124666;28;20171;-81
2022/03/21 08:37:38;;;;;;;18.13;9.83;;;10.10;92.50;;;;;;5123131;28;20204;-81
2022/03/21 08:40:06;;;;;;;14.83;8.93;;;10.00;91.40;;;;;;5121856;28;20175;-81
2022/03/21 08:42:32;;;;;;;13.37;8.67;;;;;;;;;;5122353;28;20228;-81
2022/03/21 08:44:58;;;;;;;11.83;8.80;;;11.30;92.40;;;;;;5123590;28;20227;-81
2022/03/21 08:47:25;;;;;;;14.60;8.47;;;11.30;92.40;;;;;;5125006;28;20210;-82
2022/03/21 08:49:51;;;;;;;13.67;9.37;;;12.00;90.90;;;;;;5126314;28;20186;-81
2022/03/21 08:52:17;;;;;;;15.23;9.47;;;12.80;89.30;;;;;;5127446;28;20599;-81
2022/03/21 08:54:43;;;;;;;13.83;10.00;;;13.60;82.20;;;;;;5128585;28;20164;-82
2022/03/21 08:57:10;;;;;;;17.47;9.83;;;14.30;77.60;;;;;;5126819;28;20287;-82
2022/03/21 08:59:36;;;;;;;11.93;9.10;;;14.40;75.00;;;;;;5127329;28;20180;-82
2022/03/21 09:02:02;;;;;;;15.13;9.63;;;14.10;79.00;;;;;;5127167;28;20669;-82
2022/03/21 09:04:28;;;;;;;15.23;9.40;;;14.10;74.40;;;;;;5126893;28;20537;-82
2022/03/21 09:06:54;;;;;;;12.60;9.40;;;14.30;79.40;;;;;;5127398;28;20190;-82
2022/03/21 09:09:21;;;;;;;14.53;10.23;;;14.70;72.20;;;;;;5128004;28;20668;-82
2022/03/21 09:11:47;;;;;;;12.53;10.00;;;14.90;70.50;;;;;;5128669;28;20177;-82
2022/03/21 09:14:13;;;;;;;17.63;11.67;;;14.70;67.90;;;;;;5128792;28;20175;-82
2022/03/21 09:16:39;;;;;;;16.30;10.13;;;14.70;67.40;;;;;;5131124;28;20195;-82
2022/03/21 09:19:06;;;;;;;18.17;10.50;;;14.70;74.00;;;;;;5126896;28;20247;-82
2022/03/21 09:21:31;;;;;;;11.73;9.63;;;14.80;66.30;;;;;;5126426;28;20260;-82
2022/03/21 09:23:57;;;;;;;15.00;9.67;;;14.70;65.70;;;;;;5127490;28;20168;-82
2022/03/21 09:26:23;;;;;;;13.57;9.40;;;14.80;68.30;;;;;;5126168;28;20214;-82
2022/03/21 09:28:49;;;;;;;11.33;9.30;;;15.20;67.60;;;;;;5126290;28;20182;-83
2022/03/21 09:31:16;;;;;;;11.90;9.87;;;15.60;65.10;;;;;;5127174;28;20229;-82
2022/03/21 09:33:43;;;;;;;15.73;9.70;;;15.90;66.00;;;;;;5126408;28;20181;-82
2022/03/21 09:36:09;;;;;;;18.03;10.47;;;15.80;65.70;;;;;;5126345;28;20199;-82
2022/03/21 09:38:36;;;;;;;16.43;9.73;;;15.80;64.90;;;;;;5126560;28;20243;-82
2022/03/21 09:41:03;;;;;;;15.97;10.40;;;15.70;62.80;;;;;;5127077;28;20322;-83
2022/03/21 09:43:30;;;;;;;12.50;10.07;;;16.00;63.40;;;;;;5127379;28;20180;-83
2022/03/21 09:45:59;;;;;;;12.33;10.30;;;15.90;64.90;;;;;;5128727;28;20220;-82
2022/03/21 09:48:28;;;;;;;13.77;10.20;;;15.70;61.60;;;;;;5129174;28;20195;-82
2022/03/21 09:50:56;;;;;;;14.17;10.63;;;15.70;61.90;;;;;;5127646;28;20167;-83
2022/03/21 09:53:22;;;;;;;14.13;10.67;;;15.60;64.90;;;;;;5127221;28;20641;-83
2022/03/21 09:55:48;;;;;;;17.17;11.30;;;15.80;64.80;;;;;;5130468;28;20188;-83
2022/03/21 09:58:14;;;;;;;12.23;10.30;;;16.10;61.70;;;;;;5128338;27;20194;-82
2022/03/21 10:00:41;;;;;;;16.13;10.83;;;16.10;62.70;;;;;;5124210;28;20555;-83
2022/03/21 10:03:08;;;;;;;14.53;10.77;;;16.00;63.10;;;;;;5123772;28;20187;-83
2022/03/21 10:05:43;;;;;;;14.13;10.80;;;14.80;63.20;;;;;;5126539;28;20196;-83
2022/03/21 10:08:14;;;;;;;17.10;10.80;;;15.20;68.20;;;;;;5124884;28;20250;-83
2022/03/21 10:10:40;;;;;;;14.80;10.17;;;15.80;68.40;;;;;;5125443;28;20177;-83
2022/03/21 10:13:09;;;;;;;13.47;10.97;;;16.30;62.60;;;;;;5125076;28;20247;-83
2022/03/21 10:15:37;;;;;;;16.97;11.27;;;16.40;61.50;;;;;;5126467;28;20195;-83
2022/03/21 10:18:10;;;;;;;15.80;10.13;;;16.50;61.80;;;;;;5126234;28;20178;-83
2022/03/21 10:20:38;;;;;;;15.03;11.40;;;16.40;62.90;;;;;;5125533;28;20692;-83
2022/03/21 10:23:17;;;;;;;16.53;10.83;;;16.40;62.10;;;;;;5126656;28;20259;-83
2022/03/21 10:25:43;;;;;;;12.90;10.37;;;16.40;61.70;;;;;;5127005;28;20220;-83
2022/03/21 10:28:09;;;;;;;15.67;10.97;;;15.90;62.20;;;;;;5132953;28;20189;-83
2022/03/21 10:30:45;;;;;;;13.73;10.77;;;16.30;65.00;;;;;;5129095;28;20228;-83
2022/03/21 10:33:10;;;;;;;13.77;10.53;;;16.80;61.00;;;;;;5126921;28;20517;-83
2022/03/21 10:35:46;;;;;;;16.00;11.77;;;17.00;58.50;;;;;;5127828;28;20208;-83
2022/03/21 10:38:12;;;;;;;17.87;11.67;;;16.70;61.50;;;;;;5126347;28;20162;-83
2022/03/21 10:40:44;;;;;;;16.43;11.30;;;16.90;57.90;;;;;;5127009;28;20177;-84
2022/03/21 10:43:13;;;;;;;15.60;11.07;;;16.90;58.50;;;;;;5126099;28;20544;-83
2022/03/21 10:45:41;;;;;;;15.80;10.93;;;17.10;58.20;;;;;;5127808;28;20206;-83
2022/03/21 10:48:33;;;;;;;14.53;11.00;;;16.90;60.00;;;;;;5126465;28;20178;-83
2022/03/21 10:51:01;;;;;;;12.93;10.73;;;17.10;57.50;;;;;;5127848;28;20221;-84
2022/03/21 10:53:38;;;;;;;18.90;11.93;;;17.10;57.70;;;;;;5126202;28;20200;-84
2022/03/21 10:56:08;;;;;;;16.57;11.17;;;17.10;56.90;;;;;;5125758;28;20207;-84
2022/03/21 10:58:36;;;;;;;16.63;11.10;;;17.30;58.80;;;;;;5126367;28;20164;-84
2022/03/21 11:01:12;;;;;;;13.63;11.00;;;17.80;57.10;;;;;;5126489;28;20174;-84
2022/03/21 11:03:41;;;;;;;14.70;11.67;;;17.80;58.70;;;;;;5126280;28;20193;-84
2022/03/21 11:06:11;;;;;;;15.47;10.93;;;17.70;56.70;;;;;;5127378;28;20590;-85
2022/03/21 11:08:37;;;;;;;15.60;11.57;;;17.30;57.40;;;;;;5127810;28;20182;-84
2022/03/21 11:11:08;;;;;;;13.63;10.67;;;17.20;57.10;;;;;;5129626;28;20506;-84
2022/03/21 11:13:36;;;;;;;12.27;10.90;;;17.40;57.70;;;;;;5128670;28;20172;-84
2022/03/21 11:16:03;;;;;;;18.23;12.30;;;17.00;56.30;;;;;;5130212;28;20184;-84
2022/03/21 11:18:29;;;;;;;14.50;11.23;;;17.00;58.20;;;;;;5129146;28;20176;-84
2022/03/21 11:20:59;;;;;;;14.80;11.20;;;16.90;57.50;;;;;;5128397;28;20172;-84
2022/03/21 11:23:26;;;;;;;13.60;11.93;;;17.10;56.00;;;;;;5124633;28;20179;-83
2022/03/21 11:26:11;;;;;;;13.10;11.63;;;17.40;58.00;;;;;;5124849;28;20209;-84
2022/03/21 11:29:25;;;;;;;13.47;11.37;;;17.80;56.80;;;;;;5124364;28;20184;-84
2022/03/21 11:32:17;;;;;;;15.67;11.10;;;18.00;56.20;;;;;;5116578;28;20219;-84
2022/03/21 11:35:17;;;;;;;16.70;11.73;;;18.10;54.60;;;;;;5121466;28;20211;-84
2022/03/21 11:37:43;;;;;;;12.53;10.40;;;18.20;54.00;;;;;;5126231;28;20176;-84
2022/03/21 11:40:29;;;;;;;13.13;10.17;;;18.10;54.60;;;;;;5125366;28;20178;-84
2022/03/21 11:43:18;;;;;;;13.60;10.43;;;18.20;52.30;;;;;;5124173;28;20545;-83
2022/03/21 11:45:53;;;;;;;16.60;10.67;;;18.50;53.60;;;;;;5119539;28;20700;-83
2022/03/21 11:48:18;;;;;;;14.20;11.77;;;18.30;52.20;;;;;;5124100;28;20184;-83
2022/03/21 11:51:04;;;;;;;14.83;11.80;;;17.90;52.10;;;;;;5124952;28;20170;-83
2022/03/21 11:53:34;;;;;;;14.23;10.80;;;17.80;54.90;;;;;;5091005;28;20190;-83
2022/03/21 11:56:00;;;;;;;17.57;12.20;;;18.40;52.80;;;;;;5123177;28;20278;-82
2022/03/21 11:58:38;;;;;;;20.60;12.90;;;19.10;54.60;;;;;;5121054;28;20182;-83
2022/03/21 12:01:20;;;;;;;13.47;12.07;;;19.50;51.80;;;;;;5123335;28;20621;-82
2022/03/21 12:03:45;;;;;;;15.77;12.77;;;19.80;53.20;;;;;;5121882;28;20195;-84
2022/03/21 12:06:23;;;;;;;15.13;11.90;;;20.00;51.50;;;;;;5123567;28;20202;-84
2022/03/21 12:09:08;;;;;;;14.20;11.03;;;19.70;51.40;;;;;;5122848;28;20270;-84
2022/03/21 12:11:40;;;;;;;13.97;11.30;;;19.80;50.70;;;;;;5124139;28;20510;-84
2022/03/21 12:14:36;;;;;;;13.83;11.97;;;20.20;51.00;;;;;;5123715;28;20167;-84
2022/03/21 12:17:01;;;;;;;17.33;12.03;;;20.10;47.70;;;;;;5123711;28;20211;-83
2022/03/21 12:19:48;;;;;;;14.10;12.33;;;20.20;49.00;;;;;;5124388;28;20188;-86
2022/03/21 12:22:36;;;;;;;13.73;12.27;;;20.00;49.10;;;;;;5125000;28;20178;-87
2022/03/21 12:25:09;;;;;;;14.87;12.70;;;19.80;48.70;;;;;;5126675;28;20193;-83
2022/03/21 12:27:36;;;;;;;13.40;11.60;;;19.40;49.90;;;;;;5131400;28;20169;-82
2022/03/21 12:30:31;;;;;;;22.33;12.40;;;19.40;49.50;;;;;;5136123;28;20230;-83
2022/03/21 12:33:01;;;;;;;16.57;12.90;;;19.90;51.20;;;;;;5127683;28;20177;-82
2022/03/21 12:35:35;;;;;;;16.93;11.60;;;20.50;49.30;;;;;;5124043;28;20262;-83
2022/03/21 12:38:17;;;;;;;14.73;11.47;;;20.70;47.30;;;;;;5125322;28;20265;-83
2022/03/21 12:40:46;;;;;;;14.17;12.20;;;19.90;47.00;;;;;;5126503;28;20177;-84
2022/03/21 12:43:13;;;;;;;14.23;11.50;;;19.60;47.70;;;;;;5124594;28;20187;-84
2022/03/21 12:45:38;;;;;;;18.70;12.47;;;20.10;48.40;;;;;;5123253;28;20705;-84
2022/03/21 12:48:07;;;;;;;15.47;11.57;;;20.90;46.00;;;;;;5127474;28;20177;-82
2022/03/21 12:50:35;;;;;;;15.50;12.30;;;21.00;45.20;;;;;;5132045;28;20233;-82
2022/03/21 12:53:09;;;;;;;15.93;11.87;;;20.80;44.90;;;;;;5124012;28;20168;-83
2022/03/21 12:55:35;;;;;;;17.37;12.60;;;20.60;45.50;;;;;;5121780;28;20340;-82
2022/03/21 12:58:09;;;;;;;17.37;12.43;;;21.00;45.10;;;;;;5124086;28;20173;-83
2022/03/21 13:00:38;;;;;;;16.90;11.77;;;20.10;45.50;;;;;;5123813;28;20227;-83
2022/03/21 13:03:05;;;;;;;15.30;11.37;;;20.30;45.20;;;;;;5123566;28;20182;-82